• Join FlightAware (Why Join?)
  • Login
  • US Flag 
07:32AM EDT


 

Airport Tracker/Info


-or-


 

Live Flight TrackerFlight Track Log ✈ UAL5819 ✈ 21-Sep-2013 ✈ KMCI - KORD

Flight Track Log - Related Links

Times and Time Zones

All times are in EDT time to prevent confusion due to time zone crossing. See the UAL5819 flight status page for this flight to view local times or setup timezone preferences in your user account.

Time Position Orientation Groundspeed Altitude Reporting Facility
EDT Latitude Longitude Course Direction KTS MPH feet Rate Location/Type
07:12AM 39.3167 -94.7167 47° Northeast 161 185 1,500  Level Kansas City TRACON
07:13AM 39.3667 -94.6833 27° Northeast 172 198 3,700 1,920 Climbing Kansas City TRACON
07:14AM 39.3792 -94.6675 44° Northeast 178 205 4,600 1,980 Climbing Kansas City Center
07:15AM 39.4175 -94.6136 47° Northeast 212 244 6,900 2,340 Climbing Kansas City Center
07:16AM 39.4496 -94.3668 45° Northeast  Level Estimated
07:16AM 39.4633 -94.5514 46° Northeast 217 250 9,300  Level Kansas City Center
07:17AM 39.5209 -94.3285 22° Northeast  Level FlightAware Approximate
07:17AM 39.5036 -94.4956 47° Northeast 221 254 11,000  Level Kansas City Center
07:18AM 39.5703 -94.2122 47° Northeast  Level Estimated
07:18AM 39.5536 -94.4261 47° Northeast 276 318 11,800  Level Kansas City Center
07:19AM 39.6069 -94.3522 47° Northeast 291 335 13,500 1,560 Climbing Kansas City Center
07:20AM 39.6717 -94.2631 47° Northeast 304 350 15,000 1,380 Climbing Kansas City Center
07:21AM 39.7289 -94.1842 47° Northeast 314 361 16,400 1,380 Climbing Kansas City Center
07:22AM 39.7886 -94.1044 46° Northeast 321 369 17,900 1,440 Climbing Kansas City Center
07:23AM 39.8536 -94.0181 46° Northeast 325 374 19,400 1,380 Climbing Kansas City Center
07:24AM 39.8917 -93.9061 66° East 340 391 20,700 1,380 Climbing Kansas City Center
07:25AM 39.9242 -93.7858 71° East 353 406 22,200 1,320 Climbing Kansas City Center
07:26AM 39.9567 -93.6639 71° East 358 412 23,400 1,200 Climbing Kansas City Center
07:27AM 39.9906 -93.5403 70° East 363 418 24,700 1,260 Climbing Kansas City Center
07:28AM 40.0244 -93.4161 70° East 367 422 26,000 1,260 Climbing Kansas City Center
07:29AM 40.0608 -93.2919 69° East 369 425 27,300 1,200 Climbing Kansas City Center
07:30AM 40.0939 -93.1664 71° East 368 423 28,500 840 Climbing Kansas City Center
07:31AM 40.1325 -93.0256 70° East 368 423 29,000 240 Climbing Kansas City Center
07:32AM 40.1658 -92.8969 71° East 384 442 29,000  Level Kansas City Center
07:33AM 40.2078 -92.7411 71° East 402 463 29,000  Level Kansas City Center
07:34AM 40.2433 -92.6044 71° East 412 474 29,000  Level Kansas City Center
07:35AM 40.2792 -92.4661 71° East 416 479 29,000  Level Kansas City Center
07:36AM 40.3178 -92.3253 70° East 427 491 29,000  Level Kansas City Center
07:37AM 40.3558 -92.1781 71° East 431 496 29,000  Level Kansas City Center
07:38AM 40.3933 -92.0294 72° East 433 498 29,000  Level Kansas City Center
07:39AM 40.4400 -91.8514 71° East 433 498 29,000  Level Chicago Center
07:40AM 40.4847 -91.6764 71° East 426 490 29,000  Level Chicago Center
07:41AM 40.5142 -91.5589 72° East 427 491 29,000  Level Kansas City Center
07:42AM 40.5511 -91.4128 72° East 425 489 29,000  Level Kansas City Center
07:43AM 40.5947 -91.2700 68° East 420 483 29,000 -180 Level Kansas City Center
07:44AM 40.6472 -91.1300 64° Northeast 424 488 28,700 -660 Descending Kansas City Center
07:45AM 40.6942 -90.9906 66° East 420 483 27,700 -1,020 Descending Kansas City Center
07:46AM 40.7400 -90.8569 66° East 406 467 26,700 -1,020 Descending Kansas City Center
07:47AM 40.7839 -90.7281 66° East 391 450 25,700 -1,020 Descending Kansas City Center
07:48AM 40.8264 -90.6000 66° East 383 441 24,700 -780 Descending Kansas City Center
07:49AM 40.8772 -90.4486 66° East 376 433 24,000 -360 Descending Chicago Center
07:50AM 40.9194 -90.3206 66° East 377 434 24,000  Level Chicago Center
07:51AM 40.9694 -90.1747 66° East 396 456 24,000  Level Chicago Center
07:52AM 41.0100 -90.0461 67° East 408 470 24,000  Level Chicago Center
07:53AM 41.0586 -89.9014 66° East 421 484 24,000  Level Chicago Center
07:54AM 41.1050 -89.7583 67° East 421 484 24,000 -240 Level Chicago Center
07:55AM 41.1492 -89.6208 67° East 409 471 23,600 -1,080 Descending Chicago Center
07:56AM 41.1961 -89.4989 63° Northeast 382 440 21,900 -1,860 Descending Chicago Center
07:57AM 41.2483 -89.3731 61° Northeast 380 437 19,900 -1,920 Descending Chicago Center
07:58AM 41.2961 -89.2514 62° Northeast 379 436 18,100 -1,920 Descending Chicago Center
07:59AM 41.3506 -89.1097 63° Northeast 359 413 16,000 -1,920 Descending Chicago Center
08:00AM 41.3986 -88.9925 61° Northeast 360 414 14,200 -1,800 Descending Chicago Center
08:01AM 41.4433 -88.8786 62° Northeast 353 406 12,400 -1,560 Descending Chicago Center
08:02AM 41.4869 -88.7703 62° Northeast 338 389 11,100 -660 Descending Chicago Center
08:03AM 41.5328 -88.6519 63° Northeast 351 404 11,100  Level Chicago Center
08:04AM 41.5803 -88.5342 62° Northeast 358 412 11,100 -60 Level Chicago Center
08:05AM 41.6339 -88.4197 58° Northeast 360 414 11,000 -60 Descending Chicago Center
08:07AM 41.6961 -88.3150 51° Northeast 357 411 11,000  Level Chicago Center
08:08AM 41.7578 -88.2106 52° Northeast 357 411 11,000 -540 Level Chicago Center
08:09AM 41.8086 -88.1217 52° Northeast 315 362 10,000 -1,380 Descending Chicago Center
08:10AM 41.8556 -88.0394 53° Northeast 282 325 8,300 -1,440 Descending Chicago Center
08:10AM 41.8833 -87.9667 63° Northeast 247 284 7,500 -780 Descending Chicago TRACON
08:11AM 41.8833 -87.8833 90° East 219 252 7,000 -300 Descending Chicago TRACON
08:12AM 41.8833 -87.8000 90° East 214 246 7,000 -420 Level Chicago TRACON
08:13AM 41.8833 -87.7167 90° East 219 252 6,200 -900 Descending Chicago TRACON
08:14AM 41.8833 -87.6500 90° East 204 235 5,200 -1,080 Descending Chicago TRACON
08:15AM 41.9333 -87.6667 346° North 174 200 4,100 -1,020 Descending Chicago TRACON
08:16AM 41.9500 -87.7167 294° West 151 174 3,200 -780 Descending Chicago TRACON
08:17AM 41.9667 -87.7667 294° West 151 174 2,600 -840 Descending Chicago TRACON
08:18AM 41.9667 -87.8167 270° West 133 153 1,600 -900 Descending Chicago TRACON
08:19AM 41.9667 -87.8667 270° West 128 147 900 -720 Descending Chicago TRACON